sensor_id;sensor_type;location;lat;lon;timestamp;pressure;altitude;pressure_sealevel;temperature;humidity
59829;BME280;45708;51.848;107.620;2023-11-19T00:03:35;94560.59;;;-8.92;77.95
59829;BME280;45708;51.848;107.620;2023-11-19T00:08:36;94582.00;;;-8.82;78.29
59829;BME280;45708;51.848;107.620;2023-11-19T00:13:37;94574.13;;;-8.79;77.94
59829;BME280;45708;51.848;107.620;2023-11-19T00:18:38;94562.22;;;-8.91;77.99
59829;BME280;45708;51.848;107.620;2023-11-19T00:23:39;94570.13;;;-8.83;77.82
59829;BME280;45708;51.848;107.620;2023-11-19T00:28:39;94562.25;;;-8.80;77.78
59829;BME280;45708;51.848;107.620;2023-11-19T00:33:40;94549.66;;;-8.83;77.84
59829;BME280;45708;51.848;107.620;2023-11-19T00:38:41;94580.84;;;-8.67;77.84
59829;BME280;45708;51.848;107.620;2023-11-19T00:43:42;94537.09;;;-8.86;78.31
59829;BME280;45708;51.848;107.620;2023-11-19T00:48:43;94557.13;;;-8.80;78.07
59829;BME280;45708;51.848;107.620;2023-11-19T00:53:44;94559.19;;;-8.85;78.19
59829;BME280;45708;51.848;107.620;2023-11-19T00:58:45;94535.69;;;-8.90;77.87
59829;BME280;45708;51.848;107.620;2023-11-19T01:03:46;94528.25;;;-8.82;78.08
59829;BME280;45708;51.848;107.620;2023-11-19T01:08:46;94525.47;;;-8.68;78.67
59829;BME280;45708;51.848;107.620;2023-11-19T01:13:48;94508.22;;;-8.66;78.28
59829;BME280;45708;51.848;107.620;2023-11-19T01:18:49;94512.31;;;-8.63;78.40
59829;BME280;45708;51.848;107.620;2023-11-19T01:23:50;94504.16;;;-8.68;78.39
59829;BME280;45708;51.848;107.620;2023-11-19T01:28:50;94473.47;;;-8.79;78.12
59829;BME280;45708;51.848;107.620;2023-11-19T01:33:51;94479.97;;;-8.75;78.26
59829;BME280;45708;51.848;107.620;2023-11-19T01:38:52;94511.63;;;-8.54;78.81
59829;BME280;45708;51.848;107.620;2023-11-19T01:43:53;94501.94;;;-8.50;78.33
59829;BME280;45708;51.848;107.620;2023-11-19T01:48:54;94502.06;;;-8.52;78.15
59829;BME280;45708;51.848;107.620;2023-11-19T01:53:56;94465.66;;;-8.67;78.27
59829;BME280;45708;51.848;107.620;2023-11-19T01:58:58;94469.34;;;-8.48;78.54
59829;BME280;45708;51.848;107.620;2023-11-19T02:03:59;94473.97;;;-8.42;77.91
59829;BME280;45708;51.848;107.620;2023-11-19T02:09:00;94468.84;;;-8.42;77.71
59829;BME280;45708;51.848;107.620;2023-11-19T02:14:01;94462.22;;;-8.34;78.34
59829;BME280;45708;51.848;107.620;2023-11-19T02:19:02;94417.84;;;-8.34;78.91
59829;BME280;45708;51.848;107.620;2023-11-19T02:24:06;94454.41;;;-8.00;78.47
59829;BME280;45708;51.848;107.620;2023-11-19T02:29:08;94459.06;;;-8.05;78.63
59829;BME280;45708;51.848;107.620;2023-11-19T02:34:12;94401.81;;;-8.15;78.21
59829;BME280;45708;51.848;107.620;2023-11-19T02:39:13;94436.97;;;-7.85;78.26
59829;BME280;45708;51.848;107.620;2023-11-19T02:44:14;94389.69;;;-7.92;78.70
59829;BME280;45708;51.848;107.620;2023-11-19T02:49:17;94402.09;;;-7.98;77.69
59829;BME280;45708;51.848;107.620;2023-11-19T02:54:18;94403.84;;;-7.98;78.61
59829;BME280;45708;51.848;107.620;2023-11-19T02:59:19;94418.03;;;-7.94;78.10
59829;BME280;45708;51.848;107.620;2023-11-19T03:04:20;94336.84;;;-8.25;78.26
59829;BME280;45708;51.848;107.620;2023-11-19T03:09:21;94373.38;;;-7.71;78.07
59829;BME280;45708;51.848;107.620;2023-11-19T03:14:22;94390.88;;;-7.55;78.84
59829;BME280;45708;51.848;107.620;2023-11-19T03:19:22;94393.84;;;-7.29;78.18
59829;BME280;45708;51.848;107.620;2023-11-19T03:24:23;94363.59;;;-7.25;78.29
59829;BME280;45708;51.848;107.620;2023-11-19T03:29:24;94350.25;;;-7.50;77.40
59829;BME280;45708;51.848;107.620;2023-11-19T03:34:25;94333.28;;;-7.41;78.82
59829;BME280;45708;51.848;107.620;2023-11-19T03:39:26;94329.22;;;-7.13;77.84
59829;BME280;45708;51.848;107.620;2023-11-19T03:44:27;94337.91;;;-6.95;78.41
59829;BME280;45708;51.848;107.620;2023-11-19T03:49:28;94318.72;;;-6.91;77.65
59829;BME280;45708;51.848;107.620;2023-11-19T03:54:28;94298.19;;;-6.81;78.85
59829;BME280;45708;51.848;107.620;2023-11-19T03:59:29;94289.94;;;-6.85;78.09
59829;BME280;45708;51.848;107.620;2023-11-19T04:04:30;94266.69;;;-6.83;78.97
59829;BME280;45708;51.848;107.620;2023-11-19T04:09:31;94255.09;;;-6.68;78.48
59829;BME280;45708;51.848;107.620;2023-11-19T04:14:32;94251.56;;;-6.67;78.42
59829;BME280;45708;51.848;107.620;2023-11-19T04:19:33;94251.84;;;-6.80;78.13
59829;BME280;45708;51.848;107.620;2023-11-19T04:24:34;94235.50;;;-6.79;78.06
59829;BME280;45708;51.848;107.620;2023-11-19T04:29:34;94202.13;;;-6.98;77.84
59829;BME280;45708;51.848;107.620;2023-11-19T04:34:35;94211.00;;;-6.44;78.08
59829;BME280;45708;51.848;107.620;2023-11-19T04:39:36;94167.75;;;-6.58;77.93
59829;BME280;45708;51.848;107.620;2023-11-19T04:44:38;94180.44;;;-6.47;78.67
59829;BME280;45708;51.848;107.620;2023-11-19T04:49:42;94179.81;;;-6.22;79.19
59829;BME280;45708;51.848;107.620;2023-11-19T04:54:43;94169.47;;;-6.02;79.27
59829;BME280;45708;51.848;107.620;2023-11-19T04:59:44;94138.81;;;-5.86;79.57
59829;BME280;45708;51.848;107.620;2023-11-19T05:04:46;94155.56;;;-5.82;78.76
59829;BME280;45708;51.848;107.620;2023-11-19T05:09:47;94166.84;;;-5.65;78.32
59829;BME280;45708;51.848;107.620;2023-11-19T05:14:48;94168.91;;;-5.69;79.48
59829;BME280;45708;51.848;107.620;2023-11-19T05:19:49;94147.94;;;-5.46;78.90
59829;BME280;45708;51.848;107.620;2023-11-19T05:24:49;94120.91;;;-5.15;79.23
59829;BME280;45708;51.848;107.620;2023-11-19T05:29:50;94071.97;;;-5.51;78.93
59829;BME280;45708;51.848;107.620;2023-11-19T05:34:52;94095.38;;;-5.26;79.37
59829;BME280;45708;51.848;107.620;2023-11-19T05:39:53;94080.44;;;-5.23;78.74
59829;BME280;45708;51.848;107.620;2023-11-19T05:44:54;94072.50;;;-5.29;79.31
59829;BME280;45708;51.848;107.620;2023-11-19T05:49:55;94029.06;;;-5.50;78.54
59829;BME280;45708;51.848;107.620;2023-11-19T05:54:55;94036.16;;;-5.26;79.19
59829;BME280;45708;51.848;107.620;2023-11-19T05:59:56;94024.84;;;-5.33;78.72
59829;BME280;45708;51.848;107.620;2023-11-19T06:04:57;94039.34;;;-5.32;78.88
59829;BME280;45708;51.848;107.620;2023-11-19T06:09:58;94015.66;;;-5.18;79.21
59829;BME280;45708;51.848;107.620;2023-11-19T06:14:59;94012.19;;;-5.01;79.21
59829;BME280;45708;51.848;107.620;2023-11-19T06:20:00;93968.69;;;-5.12;79.63
59829;BME280;45708;51.848;107.620;2023-11-19T06:25:01;93967.50;;;-5.00;79.65
59829;BME280;45708;51.848;107.620;2023-11-19T06:30:03;93988.38;;;-4.77;79.90
59829;BME280;45708;51.848;107.620;2023-11-19T06:35:04;93949.00;;;-4.95;78.92
59829;BME280;45708;51.848;107.620;2023-11-19T06:40:05;93961.72;;;-4.94;79.09
59829;BME280;45708;51.848;107.620;2023-11-19T06:45:07;93945.72;;;-4.79;79.84
59829;BME280;45708;51.848;107.620;2023-11-19T06:50:08;93935.34;;;-4.87;79.63
59829;BME280;45708;51.848;107.620;2023-11-19T06:55:09;93926.28;;;-5.00;78.92
59829;BME280;45708;51.848;107.620;2023-11-19T07:00:10;93909.81;;;-5.07;79.83
59829;BME280;45708;51.848;107.620;2023-11-19T07:05:13;93917.88;;;-5.02;79.92
59829;BME280;45708;51.848;107.620;2023-11-19T07:10:14;93894.13;;;-4.96;79.72
59829;BME280;45708;51.848;107.620;2023-11-19T07:15:14;93872.53;;;-4.95;80.25
59829;BME280;45708;51.848;107.620;2023-11-19T07:20:17;93877.72;;;-4.86;79.80
59829;BME280;45708;51.848;107.620;2023-11-19T07:25:18;93852.53;;;-5.01;80.12
59829;BME280;45708;51.848;107.620;2023-11-19T07:30:19;93861.69;;;-5.14;79.46
59829;BME280;45708;51.848;107.620;2023-11-19T07:35:21;93858.09;;;-5.22;79.14
59829;BME280;45708;51.848;107.620;2023-11-19T07:40:21;93843.75;;;-5.24;80.39
59829;BME280;45708;51.848;107.620;2023-11-19T07:45:22;93828.69;;;-5.19;80.61
59829;BME280;45708;51.848;107.620;2023-11-19T07:50:23;93817.75;;;-5.47;79.92
59829;BME280;45708;51.848;107.620;2023-11-19T07:55:24;93801.97;;;-5.52;80.63
59829;BME280;45708;51.848;107.620;2023-11-19T08:00:25;93783.41;;;-5.64;79.79
59829;BME280;45708;51.848;107.620;2023-11-19T08:05:26;93816.19;;;-5.40;80.38
59829;BME280;45708;51.848;107.620;2023-11-19T08:10:27;93796.97;;;-5.54;80.47
59829;BME280;45708;51.848;107.620;2023-11-19T08:15:28;93778.53;;;-5.75;80.54
59829;BME280;45708;51.848;107.620;2023-11-19T08:20:28;93755.78;;;-5.88;81.14
59829;BME280;45708;51.848;107.620;2023-11-19T08:25:29;93775.75;;;-5.56;80.45
59829;BME280;45708;51.848;107.620;2023-11-19T08:30:30;93759.91;;;-5.69;81.04
59829;BME280;45708;51.848;107.620;2023-11-19T08:35:31;93770.81;;;-5.75;80.31
59829;BME280;45708;51.848;107.620;2023-11-19T08:40:33;93766.59;;;-5.84;81.21
59829;BME280;45708;51.848;107.620;2023-11-19T08:45:33;93757.09;;;-5.84;80.25
59829;BME280;45708;51.848;107.620;2023-11-19T08:50:34;93754.69;;;-5.85;81.09
59829;BME280;45708;51.848;107.620;2023-11-19T08:55:35;93750.50;;;-5.94;80.64
59829;BME280;45708;51.848;107.620;2023-11-19T09:00:36;93740.81;;;-6.00;80.18
59829;BME280;45708;51.848;107.620;2023-11-19T09:05:37;93745.00;;;-5.99;80.88
59829;BME280;45708;51.848;107.620;2023-11-19T09:10:40;93726.22;;;-6.00;80.66
59829;BME280;45708;51.848;107.620;2023-11-19T09:15:41;93691.63;;;-6.05;81.53
59829;BME280;45708;51.848;107.620;2023-11-19T09:20:41;93666.53;;;-6.11;81.37
59829;BME280;45708;51.848;107.620;2023-11-19T09:25:42;93687.91;;;-6.11;81.01
59829;BME280;45708;51.848;107.620;2023-11-19T09:30:43;93689.63;;;-6.20;81.53
59829;BME280;45708;51.848;107.620;2023-11-19T09:35:44;93667.44;;;-6.21;81.50
59829;BME280;45708;51.848;107.620;2023-11-19T09:40:45;93648.41;;;-6.36;81.60
59829;BME280;45708;51.848;107.620;2023-11-19T09:45:48;93634.00;;;-6.29;80.89
59829;BME280;45708;51.848;107.620;2023-11-19T09:50:50;93641.06;;;-6.31;80.83
59829;BME280;45708;51.848;107.620;2023-11-19T09:55:53;93603.47;;;-6.32;81.18
59829;BME280;45708;51.848;107.620;2023-11-19T10:00:54;93638.00;;;-6.26;81.39
59829;BME280;45708;51.848;107.620;2023-11-19T10:05:55;93611.16;;;-6.40;80.98
59829;BME280;45708;51.848;107.620;2023-11-19T10:10:56;93576.25;;;-6.43;81.57
59829;BME280;45708;51.848;107.620;2023-11-19T10:15:57;93607.97;;;-6.26;81.79
59829;BME280;45708;51.848;107.620;2023-11-19T10:20:58;93610.53;;;-6.34;81.26
59829;BME280;45708;51.848;107.620;2023-11-19T10:26:03;93625.31;;;-6.28;82.31
59829;BME280;45708;51.848;107.620;2023-11-19T10:31:05;93600.88;;;-6.40;81.28
59829;BME280;45708;51.848;107.620;2023-11-19T10:36:06;93612.63;;;-6.29;82.00
59829;BME280;45708;51.848;107.620;2023-11-19T10:41:07;93600.44;;;-6.27;82.12
59829;BME280;45708;51.848;107.620;2023-11-19T10:46:10;93599.63;;;-6.28;81.46
59829;BME280;45708;51.848;107.620;2023-11-19T10:51:13;93567.47;;;-6.40;81.81
59829;BME280;45708;51.848;107.620;2023-11-19T10:56:20;93594.09;;;-6.41;81.24
59829;BME280;45708;51.848;107.620;2023-11-19T11:01:27;93587.56;;;-6.35;82.20
59829;BME280;45708;51.848;107.620;2023-11-19T11:06:30;93537.41;;;-6.48;82.14
59829;BME280;45708;51.848;107.620;2023-11-19T11:11:30;93540.50;;;-6.36;81.86
59829;BME280;45708;51.848;107.620;2023-11-19T11:16:31;93517.97;;;-6.50;82.83
59829;BME280;45708;51.848;107.620;2023-11-19T11:21:32;93569.41;;;-6.34;82.14
59829;BME280;45708;51.848;107.620;2023-11-19T11:32:44;93575.53;;;-6.35;81.75
59829;BME280;45708;51.848;107.620;2023-11-19T11:37:59;93571.34;;;-6.36;82.39
59829;BME280;45708;51.848;107.620;2023-11-19T11:43:02;93563.47;;;-6.34;82.16
59829;BME280;45708;51.848;107.620;2023-11-19T11:48:15;93577.78;;;-6.32;83.00
59829;BME280;45708;51.848;107.620;2023-11-19T11:53:17;93567.19;;;-6.29;83.09
59829;BME280;45708;51.848;107.620;2023-11-19T11:58:19;93571.03;;;-6.25;83.66
59829;BME280;45708;51.848;107.620;2023-11-19T12:03:21;93529.28;;;-6.27;82.56
59829;BME280;45708;51.848;107.620;2023-11-19T12:08:26;93548.63;;;-6.15;83.07
59829;BME280;45708;51.848;107.620;2023-11-19T12:13:56;93554.34;;;-6.29;83.45
59829;BME280;45708;51.848;107.620;2023-11-19T12:19:02;93568.78;;;-6.28;82.75
59829;BME280;45708;51.848;107.620;2023-11-19T12:24:04;93550.28;;;-6.39;82.67
59829;BME280;45708;51.848;107.620;2023-11-19T12:29:06;93534.06;;;-6.40;82.71
59829;BME280;45708;51.848;107.620;2023-11-19T12:34:07;93498.47;;;-6.69;82.66
59829;BME280;45708;51.848;107.620;2023-11-19T12:39:09;93536.72;;;-6.58;83.25
59829;BME280;45708;51.848;107.620;2023-11-19T12:44:10;93535.94;;;-6.58;83.00
59829;BME280;45708;51.848;107.620;2023-11-19T12:49:11;93512.88;;;-6.76;83.51
59829;BME280;45708;51.848;107.620;2023-11-19T12:54:12;93513.34;;;-6.81;83.25
59829;BME280;45708;51.848;107.620;2023-11-19T12:59:13;93524.69;;;-6.83;82.98
59829;BME280;45708;51.848;107.620;2023-11-19T13:04:20;93541.31;;;-6.69;83.77
59829;BME280;45708;51.848;107.620;2023-11-19T13:09:25;93546.13;;;-6.66;83.20
59829;BME280;45708;51.848;107.620;2023-11-19T13:14:36;93507.31;;;-6.63;82.91
59829;BME280;45708;51.848;107.620;2023-11-19T13:19:37;93527.84;;;-6.63;83.56
59829;BME280;45708;51.848;107.620;2023-11-19T13:24:38;93495.31;;;-6.89;83.75
59829;BME280;45708;51.848;107.620;2023-11-19T13:29:39;93488.25;;;-6.95;83.32
59829;BME280;45708;51.848;107.620;2023-11-19T13:34:41;93499.09;;;-6.75;83.02
59829;BME280;45708;51.848;107.620;2023-11-19T13:39:42;93511.16;;;-6.67;83.97
59829;BME280;45708;51.848;107.620;2023-11-19T13:44:43;93510.47;;;-6.78;83.74
59829;BME280;45708;51.848;107.620;2023-11-19T13:49:47;93514.91;;;-6.88;83.09
59829;BME280;45708;51.848;107.620;2023-11-19T13:54:48;93518.13;;;-6.86;83.24
59829;BME280;45708;51.848;107.620;2023-11-19T13:59:49;93526.22;;;-6.72;84.30
59829;BME280;45708;51.848;107.620;2023-11-19T14:04:49;93520.34;;;-6.91;84.20
59829;BME280;45708;51.848;107.620;2023-11-19T14:09:50;93547.91;;;-6.93;83.96
59829;BME280;45708;51.848;107.620;2023-11-19T14:14:51;93535.31;;;-7.04;84.10
59829;BME280;45708;51.848;107.620;2023-11-19T14:19:52;93525.69;;;-7.10;83.45
59829;BME280;45708;51.848;107.620;2023-11-19T14:24:53;93562.53;;;-6.93;84.70
59829;BME280;45708;51.848;107.620;2023-11-19T14:29:54;93581.94;;;-6.91;83.70
59829;BME280;45708;51.848;107.620;2023-11-19T14:34:55;93562.06;;;-6.89;84.46
59829;BME280;45708;51.848;107.620;2023-11-19T14:39:56;93579.94;;;-6.79;84.16
59829;BME280;45708;51.848;107.620;2023-11-19T14:44:57;93535.31;;;-7.04;83.28
59829;BME280;45708;51.848;107.620;2023-11-19T14:49:58;93550.41;;;-7.01;83.89
59829;BME280;45708;51.848;107.620;2023-11-19T14:54:59;93576.50;;;-6.88;84.49
59829;BME280;45708;51.848;107.620;2023-11-19T14:59:59;93582.13;;;-6.84;84.54
59829;BME280;45708;51.848;107.620;2023-11-19T15:05:00;93563.66;;;-6.88;83.58
59829;BME280;45708;51.848;107.620;2023-11-19T15:10:01;93554.34;;;-6.89;84.13
59829;BME280;45708;51.848;107.620;2023-11-19T15:15:03;93563.63;;;-6.96;83.73
59829;BME280;45708;51.848;107.620;2023-11-19T15:20:04;93573.47;;;-7.09;83.47
59829;BME280;45708;51.848;107.620;2023-11-19T15:25:05;93544.78;;;-7.30;83.56
59829;BME280;45708;51.848;107.620;2023-11-19T15:30:06;93580.81;;;-7.14;84.13
59829;BME280;45708;51.848;107.620;2023-11-19T15:35:09;93576.03;;;-7.09;83.79
59829;BME280;45708;51.848;107.620;2023-11-19T15:40:11;93598.25;;;-7.00;84.45
59829;BME280;45708;51.848;107.620;2023-11-19T15:45:11;93603.47;;;-7.10;83.68
59829;BME280;45708;51.848;107.620;2023-11-19T15:50:12;93620.63;;;-7.10;84.39
59829;BME280;45708;51.848;107.620;2023-11-19T15:55:13;93613.22;;;-7.13;84.46
59829;BME280;45708;51.848;107.620;2023-11-19T16:00:14;93617.25;;;-7.11;83.43
59829;BME280;45708;51.848;107.620;2023-11-19T16:05:15;93601.94;;;-7.20;83.93
59829;BME280;45708;51.848;107.620;2023-11-19T16:10:16;93624.34;;;-7.22;83.34
59829;BME280;45708;51.848;107.620;2023-11-19T16:15:17;93423.81;;;-8.31;84.09
59829;BME280;45708;51.848;107.620;2023-11-19T16:20:18;93629.47;;;-6.87;84.38
59829;BME280;45708;51.848;107.620;2023-11-19T16:25:19;93658.78;;;-6.71;83.56
59829;BME280;45708;51.848;107.620;2023-11-19T16:30:19;93642.06;;;-6.76;83.63
59829;BME280;45708;51.848;107.620;2023-11-19T16:35:20;93641.00;;;-6.65;83.47
59829;BME280;45708;51.848;107.620;2023-11-19T16:40:21;93677.94;;;-6.40;84.00
59829;BME280;45708;51.848;107.620;2023-11-19T16:45:22;93663.84;;;-6.36;83.39
59829;BME280;45708;51.848;107.620;2023-11-19T16:50:23;93680.97;;;-6.19;84.21
59829;BME280;45708;51.848;107.620;2023-11-19T16:55:24;93685.88;;;-6.25;84.14
59829;BME280;45708;51.848;107.620;2023-11-19T17:00:25;93702.31;;;-6.18;82.95
59829;BME280;45708;51.848;107.620;2023-11-19T17:05:26;93718.56;;;-6.18;83.33
59829;BME280;45708;51.848;107.620;2023-11-19T17:10:26;93731.69;;;-6.21;82.90
59829;BME280;45708;51.848;107.620;2023-11-19T17:15:27;93722.09;;;-6.19;83.76
59829;BME280;45708;51.848;107.620;2023-11-19T17:20:28;93728.19;;;-6.20;82.90
59829;BME280;45708;51.848;107.620;2023-11-19T17:25:29;93738.59;;;-6.21;83.05
59829;BME280;45708;51.848;107.620;2023-11-19T17:30:30;93743.72;;;-6.21;83.40
59829;BME280;45708;51.848;107.620;2023-11-19T17:35:33;93739.38;;;-6.21;83.54
59829;BME280;45708;51.848;107.620;2023-11-19T17:40:34;93766.34;;;-6.25;83.33
59829;BME280;45708;51.848;107.620;2023-11-19T17:45:35;93763.72;;;-6.33;83.07
59829;BME280;45708;51.848;107.620;2023-11-19T17:50:36;93760.50;;;-6.35;84.12
59829;BME280;45708;51.848;107.620;2023-11-19T17:55:38;93759.84;;;-6.37;83.71
59829;BME280;45708;51.848;107.620;2023-11-19T18:00:39;93780.09;;;-6.34;83.13
59829;BME280;45708;51.848;107.620;2023-11-19T18:05:40;93777.69;;;-6.35;83.83
59829;BME280;45708;51.848;107.620;2023-11-19T18:10:41;93769.47;;;-6.39;84.23
59829;BME280;45708;51.848;107.620;2023-11-19T18:15:42;93763.81;;;-6.43;84.01
59829;BME280;45708;51.848;107.620;2023-11-19T18:20:43;93775.94;;;-6.35;83.16
59829;BME280;45708;51.848;107.620;2023-11-19T18:25:44;93791.34;;;-6.35;83.36
59829;BME280;45708;51.848;107.620;2023-11-19T18:30:45;93790.69;;;-6.37;83.03
59829;BME280;45708;51.848;107.620;2023-11-19T18:35:45;93802.56;;;-6.36;82.91
59829;BME280;45708;51.848;107.620;2023-11-19T18:40:46;93824.50;;;-6.41;83.06
59829;BME280;45708;51.848;107.620;2023-11-19T18:45:47;93822.75;;;-6.41;83.25
59829;BME280;45708;51.848;107.620;2023-11-19T18:50:48;93823.44;;;-6.39;83.76
59829;BME280;45708;51.848;107.620;2023-11-19T18:55:48;93822.69;;;-6.49;83.78
59829;BME280;45708;51.848;107.620;2023-11-19T19:00:49;93842.06;;;-6.37;82.89
59829;BME280;45708;51.848;107.620;2023-11-19T19:05:50;93832.81;;;-6.48;83.29
59829;BME280;45708;51.848;107.620;2023-11-19T19:10:51;93848.06;;;-6.46;84.04
59829;BME280;45708;51.848;107.620;2023-11-19T19:15:52;93845.16;;;-6.51;84.01
59829;BME280;45708;51.848;107.620;2023-11-19T19:20:53;93849.19;;;-6.49;83.43
59829;BME280;45708;51.848;107.620;2023-11-19T19:25:54;93863.78;;;-6.49;83.69
59829;BME280;45708;51.848;107.620;2023-11-19T19:30:55;93884.56;;;-6.43;82.71
59829;BME280;45708;51.848;107.620;2023-11-19T19:35:56;93825.31;;;-6.77;82.71
59829;BME280;45708;51.848;107.620;2023-11-19T19:40:56;93886.91;;;-6.49;83.61
59829;BME280;45708;51.848;107.620;2023-11-19T19:45:57;93880.09;;;-6.58;83.77
59829;BME280;45708;51.848;107.620;2023-11-19T19:50:58;93887.63;;;-6.57;82.51
59829;BME280;45708;51.848;107.620;2023-11-19T19:55:59;93877.13;;;-6.63;83.92
59829;BME280;45708;51.848;107.620;2023-11-19T20:01:00;93912.13;;;-6.62;83.49
59829;BME280;45708;51.848;107.620;2023-11-19T20:06:01;93913.72;;;-6.61;83.36
59829;BME280;45708;51.848;107.620;2023-11-19T20:11:02;93917.00;;;-6.59;82.50
59829;BME280;45708;51.848;107.620;2023-11-19T20:16:03;93911.47;;;-6.64;82.67
59829;BME280;45708;51.848;107.620;2023-11-19T20:21:04;93924.69;;;-6.59;82.50
59829;BME280;45708;51.848;107.620;2023-11-19T20:26:05;93948.72;;;-6.51;82.78
59829;BME280;45708;51.848;107.620;2023-11-19T20:31:06;93951.91;;;-6.39;83.22
59829;BME280;45708;51.848;107.620;2023-11-19T20:36:07;93948.66;;;-6.23;82.87
59829;BME280;45708;51.848;107.620;2023-11-19T20:41:08;93881.69;;;-6.57;82.97
59829;BME280;45708;51.848;107.620;2023-11-19T20:46:08;93945.22;;;-6.14;83.39
59829;BME280;45708;51.848;107.620;2023-11-19T20:51:09;93960.38;;;-5.93;82.32
59829;BME280;45708;51.848;107.620;2023-11-19T20:56:10;93948.81;;;-5.89;82.54
59829;BME280;45708;51.848;107.620;2023-11-19T21:01:11;93960.91;;;-5.82;82.51
59829;BME280;45708;51.848;107.620;2023-11-19T21:06:13;93944.03;;;-5.84;82.93
59829;BME280;45708;51.848;107.620;2023-11-19T21:11:14;93960.84;;;-5.72;82.37
59829;BME280;45708;51.848;107.620;2023-11-19T21:16:15;93963.78;;;-5.67;82.50
59829;BME280;45708;51.848;107.620;2023-11-19T21:21:16;93950.63;;;-5.64;83.19
59829;BME280;45708;51.848;107.620;2023-11-19T21:26:17;93965.91;;;-5.62;82.51
59829;BME280;45708;51.848;107.620;2023-11-19T21:31:18;93980.09;;;-5.58;82.34
59829;BME280;45708;51.848;107.620;2023-11-19T21:36:18;93982.38;;;-5.55;83.13
59829;BME280;45708;51.848;107.620;2023-11-19T21:41:19;93984.50;;;-5.51;82.89
59829;BME280;45708;51.848;107.620;2023-11-19T21:46:20;93977.53;;;-5.40;83.29
59829;BME280;45708;51.848;107.620;2023-11-19T21:51:21;93979.84;;;-5.29;82.54
59829;BME280;45708;51.848;107.620;2023-11-19T21:56:21;93985.88;;;-5.21;82.29
59829;BME280;45708;51.848;107.620;2023-11-19T22:01:22;93986.72;;;-5.12;82.81
59829;BME280;45708;51.848;107.620;2023-11-19T22:06:23;93987.06;;;-5.07;82.47
59829;BME280;45708;51.848;107.620;2023-11-19T22:11:24;93993.03;;;-5.06;82.88
59829;BME280;45708;51.848;107.620;2023-11-19T22:16:24;93994.44;;;-5.12;82.88
59829;BME280;45708;51.848;107.620;2023-11-19T22:21:25;93996.72;;;-5.09;82.13
59829;BME280;45708;51.848;107.620;2023-11-19T22:26:26;94013.97;;;-5.01;82.19
59829;BME280;45708;51.848;107.620;2023-11-19T22:31:31;94007.56;;;-4.97;82.52
59829;BME280;45708;51.848;107.620;2023-11-19T22:36:32;94014.53;;;-4.90;82.09
59829;BME280;45708;51.848;107.620;2023-11-19T22:41:33;94004.22;;;-4.90;83.00
59829;BME280;45708;51.848;107.620;2023-11-19T22:46:34;94008.28;;;-4.87;82.53
59829;BME280;45708;51.848;107.620;2023-11-19T22:51:35;94008.19;;;-4.77;82.43
59829;BME280;45708;51.848;107.620;2023-11-19T22:56:35;94028.81;;;-4.69;82.31
59829;BME280;45708;51.848;107.620;2023-11-19T23:01:36;94022.41;;;-4.65;82.00
59829;BME280;45708;51.848;107.620;2023-11-19T23:06:37;94040.81;;;-4.60;81.90
59829;BME280;45708;51.848;107.620;2023-11-19T23:11:38;94052.38;;;-4.64;82.25
59829;BME280;45708;51.848;107.620;2023-11-19T23:16:39;94071.13;;;-4.54;81.91
59829;BME280;45708;51.848;107.620;2023-11-19T23:21:39;94064.34;;;-4.55;81.62
59829;BME280;45708;51.848;107.620;2023-11-19T23:26:40;94076.97;;;-4.44;82.14
59829;BME280;45708;51.848;107.620;2023-11-19T23:31:41;94097.34;;;-4.33;81.86
59829;BME280;45708;51.848;107.620;2023-11-19T23:36:42;94093.81;;;-4.23;81.84
59829;BME280;45708;51.848;107.620;2023-11-19T23:41:42;94124.81;;;-4.15;81.84
59829;BME280;45708;51.848;107.620;2023-11-19T23:46:43;94108.50;;;-4.24;81.79
59829;BME280;45708;51.848;107.620;2023-11-19T23:51:44;94141.41;;;-4.18;81.49
59829;BME280;45708;51.848;107.620;2023-11-19T23:56:45;94154.09;;;-4.24;81.68
